Time,TemperatureF,DewpointF,PressureIn,WindDirection,WindDirectionDegrees,WindSpeedMPH,WindSpeedGustMPH,Humidity,HourlyPrecipIn,Conditions,Clouds,dailyrainin,SoftwareType,DateUTC
2013-03-05 00:03:00,43.2,30.0,30.15,North,9,17.0,24.0,60,0.00,,,0.00,weatherlink.com 1.10,2013-03-05 07:03:00,
2013-03-05 00:18:00,43.1,30.0,30.16,NNE,17,13.0,17.0,61,0.00,,,0.00,weatherlink.com 1.10,2013-03-05 07:18:00,
2013-03-05 00:33:00,43.5,30.0,30.16,North,4,16.0,20.0,60,0.00,,,0.00,weatherlink.com 1.10,2013-03-05 07:33:00,
2013-03-05 00:48:00,44.1,30.0,30.17,North,354,8.0,19.0,59,0.00,,,0.00,weatherlink.com 1.10,2013-03-05 07:48:00,
2013-03-05 01:04:00,44.6,30.0,30.18,NNW,343,12.0,20.0,56,0.00,,,0.00,weatherlink.com 1.10,2013-03-05 08:04:00,
2013-03-05 01:18:00,45.1,29.0,30.19,NNE,16,14.0,25.0,53,0.00,,,0.00,weatherlink.com 1.10,2013-03-05 08:18:00,
2013-03-05 01:33:00,45.1,28.0,30.21,North,359,20.0,23.0,52,0.00,,,0.00,weatherlink.com 1.10,2013-03-05 08:33:00,
2013-03-05 01:48:00,44.8,28.0,30.22,North,4,10.0,27.0,52,0.00,,,0.00,weatherlink.com 1.10,2013-03-05 08:48:00,
2013-03-05 02:03:00,44.3,28.0,30.22,NNE,12,13.0,19.0,53,0.00,,,0.00,weatherlink.com 1.10,2013-03-05 09:03:00,
2013-03-05 02:18:00,44.0,28.0,30.22,North,359,13.0,23.0,54,0.00,,,0.00,weatherlink.com 1.10,2013-03-05 09:18:00,
2013-03-05 02:33:00,43.4,28.0,30.23,North,4,11.0,16.0,56,0.00,,,0.00,weatherlink.com 1.10,2013-03-05 09:33:00,
2013-03-05 02:48:00,42.7,29.0,30.24,NNW,334,11.0,17.0,58,0.00,,,0.00,weatherlink.com 1.10,2013-03-05 09:48:00,
2013-03-05 03:03:00,42.3,29.0,30.25,NW,324,8.0,16.0,60,0.00,,,0.00,weatherlink.com 1.10,2013-03-05 10:03:00,
2013-03-05 03:18:00,41.6,29.0,30.26,North,4,8.0,14.0,62,0.00,,,0.00,weatherlink.com 1.10,2013-03-05 10:18:00,
2013-03-05 03:33:00,41.1,29.0,30.27,North,4,10.0,13.0,63,0.00,,,0.00,weatherlink.com 1.10,2013-03-05 10:33:00,
2013-03-05 03:48:00,40.6,29.0,30.28,NNW,344,7.0,11.0,64,0.00,,,0.00,weatherlink.com 1.10,2013-03-05 10:48:00,
2013-03-05 04:03:00,39.9,29.0,30.28,NNW,335,5.0,7.0,66,0.00,,,0.00,weatherlink.com 1.10,2013-03-05 11:03:00,
2013-03-05 04:18:00,38.6,29.0,30.29,NNW,334,1.0,9.0,68,0.00,,,0.00,weatherlink.com 1.10,2013-03-05 11:18:00,
2013-03-05 04:33:00,38.8,27.0,30.31,NNW,347,8.0,10.0,62,0.00,,,0.00,weatherlink.com 1.10,2013-03-05 11:33:00,
2013-03-05 04:48:00,39.5,22.0,30.32,NNW,343,14.0,17.0,50,0.00,,,0.00,weatherlink.com 1.10,2013-03-05 11:48:00,
2013-03-05 05:03:00,39.0,20.0,30.33,NNW,345,7.0,15.0,47,0.00,,,0.00,weatherlink.com 1.10,2013-03-05 12:03:00,
2013-03-05 05:18:00,38.0,19.0,30.33,NNW,337,7.0,13.0,47,0.00,,,0.00,weatherlink.com 1.10,2013-03-05 12:18:00,
2013-03-05 05:33:00,37.2,19.0,30.34,NNW,340,2.0,10.0,48,0.00,,,0.00,weatherlink.com 1.10,2013-03-05 12:33:00,
2013-03-05 05:49:00,35.9,20.0,30.35,NW,311,4.0,6.0,52,0.00,,,0.00,weatherlink.com 1.10,2013-03-05 12:49:00,
2013-03-05 06:04:00,34.6,20.0,30.35,NW,316,2.0,7.0,56,0.00,,,0.00,weatherlink.com 1.10,2013-03-05 13:04:00,
2013-03-05 06:19:00,34.1,22.0,30.36,NW,316,6.0,9.0,61,0.00,,,0.00,weatherlink.com 1.10,2013-03-05 13:19:00,
2013-03-05 06:34:00,34.7,23.0,30.37,NW,309,6.0,10.0,63,0.00,,,0.00,weatherlink.com 1.10,2013-03-05 13:34:00,
2013-03-05 06:49:00,35.6,23.0,30.39,NW,313,6.0,10.0,60,0.00,,,0.00,weatherlink.com 1.10,2013-03-05 13:49:00,
2013-03-05 07:04:00,36.9,21.0,30.40,NNW,337,5.0,11.0,54,0.00,,,0.00,weatherlink.com 1.10,2013-03-05 14:04:00,
2013-03-05 07:19:00,38.3,20.0,30.42,NNW,328,8.0,13.0,48,0.00,,,0.00,weatherlink.com 1.10,2013-03-05 14:19:00,
2013-03-05 07:34:00,39.3,18.0,30.42,North,8,14.0,19.0,42,0.00,,,0.00,weatherlink.com 1.10,2013-03-05 14:34:00,
2013-03-05 07:49:00,40.0,18.0,30.43,NNW,345,12.0,22.0,41,0.00,,,0.00,weatherlink.com 1.10,2013-03-05 14:49:00,
2013-03-05 08:04:00,40.4,17.0,30.43,North,354,17.0,24.0,39,0.00,,,0.00,weatherlink.com 1.10,2013-03-05 15:04:00,
2013-03-05 08:19:00,40.5,17.0,30.44,NNW,345,18.0,23.0,39,0.00,,,0.00,weatherlink.com 1.10,2013-03-05 15:19:00,
2013-03-05 08:34:00,41.4,16.0,30.44,North,354,16.0,19.0,36,0.00,,,0.00,weatherlink.com 1.10,2013-03-05 15:34:00,
2013-03-05 08:49:00,41.6,15.0,30.44,NNW,348,11.0,26.0,34,0.00,,,0.00,weatherlink.com 1.10,2013-03-05 15:49:00,
2013-03-05 09:04:00,42.1,15.0,30.44,WNW,298,18.0,25.0,34,0.00,,,0.00,weatherlink.com 1.10,2013-03-05 16:04:00,
2013-03-05 09:19:00,43.2,16.0,30.45,North,354,21.0,21.0,33,0.00,,,0.00,weatherlink.com 1.10,2013-03-05 16:19:00,
2013-03-05 09:34:00,43.4,15.0,30.46,NNW,342,12.0,19.0,32,0.00,,,0.00,weatherlink.com 1.10,2013-03-05 16:34:00,
2013-03-05 09:49:00,44.1,15.0,30.45,NNW,327,9.0,20.0,31,0.00,,,0.00,weatherlink.com 1.10,2013-03-05 16:49:00,
2013-03-05 10:04:00,44.1,15.0,30.45,North,8,14.0,21.0,31,0.00,,,0.00,weatherlink.com 1.10,2013-03-05 17:04:00,
2013-03-05 10:19:00,45.2,15.0,30.45,North,354,14.0,19.0,30,0.00,,,0.00,weatherlink.com 1.10,2013-03-05 17:19:00,
2013-03-05 10:34:00,45.9,16.0,30.45,North,4,12.0,17.0,30,0.00,,,0.00,weatherlink.com 1.10,2013-03-05 17:34:00,
2013-03-05 10:49:00,46.4,17.0,30.45,NNW,336,8.0,18.0,31,0.00,,,0.00,weatherlink.com 1.10,2013-03-05 17:49:00,
2013-03-05 11:04:00,47.1,16.0,30.44,NNE,24,9.0,19.0,29,0.00,,,0.00,weatherlink.com 1.10,2013-03-05 18:04:00,
2013-03-05 11:19:00,47.6,16.0,30.43,NNW,334,10.0,16.0,28,0.00,,,0.00,weatherlink.com 1.10,2013-03-05 18:19:00,
2013-03-05 11:34:00,48.7,16.0,30.43,North,350,15.0,17.0,27,0.00,,,0.00,weatherlink.com 1.10,2013-03-05 18:34:00,
2013-03-05 11:49:00,49.1,17.0,30.43,NW,322,4.0,14.0,28,0.00,,,0.00,weatherlink.com 1.10,2013-03-05 18:49:00,
2013-03-05 12:04:00,49.4,16.0,30.42,NW,317,4.0,14.0,26,0.00,,,0.00,weatherlink.com 1.10,2013-03-05 19:04:00,
2013-03-05 12:19:00,50.1,17.0,30.41,NW,314,12.0,15.0,27,0.00,,,0.00,weatherlink.com 1.10,2013-03-05 19:19:00,
2013-03-05 12:34:00,50.8,18.0,30.41,WNW,289,5.0,12.0,27,0.00,,,0.00,weatherlink.com 1.10,2013-03-05 19:34:00,
2013-03-05 12:49:00,51.2,15.0,30.40,North,349,3.0,18.0,24,0.00,,,0.00,weatherlink.com 1.10,2013-03-05 19:49:00,
2013-03-05 13:05:00,51.8,16.0,30.39,NW,316,7.0,18.0,24,0.00,,,0.00,weatherlink.com 1.10,2013-03-05 20:05:00,
2013-03-05 13:20:00,52.2,17.0,30.39,NNW,339,9.0,16.0,25,0.00,,,0.00,weatherlink.com 1.10,2013-03-05 20:20:00,
2013-03-05 13:35:00,53.1,15.0,30.39,NNW,344,11.0,13.0,22,0.00,,,0.00,weatherlink.com 1.10,2013-03-05 20:35:00,
2013-03-05 13:50:00,53.3,14.0,30.38,NNW,330,11.0,15.0,21,0.00,,,0.00,weatherlink.com 1.10,2013-03-05 20:50:00,
2013-03-05 14:05:00,53.6,14.0,30.38,NNW,339,8.0,14.0,21,0.00,,,0.00,weatherlink.com 1.10,2013-03-05 21:05:00,
2013-03-05 14:20:00,54.0,15.0,30.38,NW,322,4.0,16.0,21,0.00,,,0.00,weatherlink.com 1.10,2013-03-05 21:20:00,
2013-03-05 14:35:00,54.0,14.0,30.38,NW,314,10.0,18.0,20,0.00,,,0.00,weatherlink.com 1.10,2013-03-05 21:35:00,
2013-03-05 14:50:00,54.0,15.0,30.37,NNW,348,6.0,16.0,21,0.00,,,0.00,weatherlink.com 1.10,2013-03-05 21:50:00,
2013-03-05 15:05:00,54.3,13.0,30.37,North,354,7.0,14.0,19,0.00,,,0.00,weatherlink.com 1.10,2013-03-05 22:05:00,
2013-03-05 15:20:00,54.2,11.0,30.37,North,350,4.0,15.0,18,0.00,,,0.00,weatherlink.com 1.10,2013-03-05 22:20:00,
2013-03-05 15:35:00,54.4,13.0,30.37,North,359,6.0,13.0,19,0.00,,,0.00,weatherlink.com 1.10,2013-03-05 22:35:00,
2013-03-05 15:50:00,54.6,13.0,30.37,NNW,337,9.0,13.0,19,0.00,,,0.00,weatherlink.com 1.10,2013-03-05 22:50:00,
2013-03-05 16:05:00,54.3,13.0,30.37,North,359,10.0,10.0,19,0.00,,,0.00,weatherlink.com 1.10,2013-03-05 23:05:00,
2013-03-05 16:20:00,54.2,14.0,30.37,NNW,343,10.0,11.0,20,0.00,,,0.00,weatherlink.com 1.10,2013-03-05 23:20:00,
2013-03-05 16:35:00,54.1,12.0,30.37,WNW,303,8.0,10.0,19,0.00,,,0.00,weatherlink.com 1.10,2013-03-05 23:35:00,
2013-03-05 16:50:00,53.7,12.0,30.37,North,10,6.0,9.0,19,0.00,,,0.00,weatherlink.com 1.10,2013-03-05 23:50:00,
2013-03-05 17:05:00,53.1,13.0,30.37,NNW,334,3.0,8.0,20,0.00,,,0.00,weatherlink.com 1.10,2013-03-06 00:05:00,
2013-03-05 17:20:00,51.9,14.0,30.38,North,354,3.0,7.0,22,0.00,,,0.00,weatherlink.com 1.10,2013-03-06 00:20:00,
2013-03-05 17:35:00,50.3,16.0,30.37,North,4,1.0,3.0,25,0.00,,,0.00,weatherlink.com 1.10,2013-03-06 00:35:00,
2013-03-05 17:50:00,48.8,15.0,30.38,North,4,0.0,2.0,26,0.00,,,0.00,weatherlink.com 1.10,2013-03-06 00:50:00,
2013-03-05 18:05:00,48.0,14.0,30.38,North,4,0.0,4.0,26,0.00,,,0.00,weatherlink.com 1.10,2013-03-06 01:05:00,
2013-03-05 18:20:00,46.9,15.0,30.38,North,4,0.0,1.0,28,0.00,,,0.00,weatherlink.com 1.10,2013-03-06 01:20:00,
2013-03-05 18:35:00,45.9,15.0,30.39,North,4,0.0,1.0,29,0.00,,,0.00,weatherlink.com 1.10,2013-03-06 01:35:00,
2013-03-05 18:50:00,44.9,16.0,30.38,North,4,0.0,1.0,31,0.00,,,0.00,weatherlink.com 1.10,2013-03-06 01:50:00,
2013-03-05 19:05:00,43.9,16.0,30.39,North,4,0.0,1.0,32,0.00,,,0.00,weatherlink.com 1.10,2013-03-06 02:05:00,
2013-03-05 19:20:00,43.3,17.0,30.39,North,4,0.0,0.0,35,0.00,,,0.00,weatherlink.com 1.10,2013-03-06 02:20:00,
2013-03-05 19:35:00,42.1,18.0,30.39,North,4,0.0,0.0,38,0.00,,,0.00,weatherlink.com 1.10,2013-03-06 02:35:00,
2013-03-05 19:50:00,40.9,19.0,30.40,North,4,0.0,0.0,42,0.00,,,0.00,weatherlink.com 1.10,2013-03-06 02:50:00,
2013-03-05 20:05:00,39.7,18.0,30.40,North,4,0.0,1.0,42,0.00,,,0.00,weatherlink.com 1.10,2013-03-06 03:05:00,
2013-03-05 20:20:00,38.7,18.0,30.40,North,4,0.0,0.0,44,0.00,,,0.00,weatherlink.com 1.10,2013-03-06 03:20:00,
2013-03-05 20:35:00,38.2,19.0,30.41,North,4,0.0,0.0,46,0.00,,,0.00,weatherlink.com 1.10,2013-03-06 03:35:00,
2013-03-05 20:50:00,37.7,19.0,30.41,North,4,0.0,0.0,47,0.00,,,0.00,weatherlink.com 1.10,2013-03-06 03:50:00,
2013-03-05 21:05:00,37.3,20.0,30.41,North,4,0.0,0.0,49,0.00,,,0.00,weatherlink.com 1.10,2013-03-06 04:05:00,
2013-03-05 21:20:00,36.6,20.0,30.41,North,4,0.0,0.0,52,0.00,,,0.00,weatherlink.com 1.10,2013-03-06 04:20:00,
2013-03-05 21:35:00,36.5,20.0,30.42,North,4,0.0,0.0,51,0.00,,,0.00,weatherlink.com 1.10,2013-03-06 04:35:00,
2013-03-05 21:50:00,36.1,20.0,30.43,North,4,0.0,0.0,53,0.00,,,0.00,weatherlink.com 1.10,2013-03-06 04:50:00,
2013-03-05 22:05:00,35.1,20.0,30.42,North,4,0.0,0.0,55,0.00,,,0.00,weatherlink.com 1.10,2013-03-06 05:05:00,
2013-03-05 22:20:00,34.2,20.0,30.42,North,4,0.0,0.0,57,0.00,,,0.00,weatherlink.com 1.10,2013-03-06 05:20:00,
2013-03-05 22:35:00,33.5,20.0,30.42,North,4,0.0,0.0,57,0.00,,,0.00,weatherlink.com 1.10,2013-03-06 05:35:00,
2013-03-05 22:50:00,32.7,18.0,30.42,North,4,0.0,1.0,56,0.00,,,0.00,weatherlink.com 1.10,2013-03-06 05:50:00,
2013-03-05 23:05:00,32.6,19.0,30.42,North,4,0.0,0.0,57,0.00,,,0.00,weatherlink.com 1.10,2013-03-06 06:05:00,
2013-03-05 23:20:00,32.8,20.0,30.42,North,4,0.0,0.0,60,0.00,,,0.00,weatherlink.com 1.10,2013-03-06 06:20:00,
2013-03-05 23:35:00,32.4,21.0,30.42,North,4,0.0,0.0,62,0.00,,,0.00,weatherlink.com 1.10,2013-03-06 06:35:00,
2013-03-05 23:50:00,31.5,20.0,30.42,North,4,0.0,0.0,63,0.00,,,0.00,weatherlink.com 1.10,2013-03-06 06:50:00,